sensor_id;sensor_type;location;lat;lon;timestamp;temperature;humidity
37408;DHT22;24866;50.248;8.252;2023-03-11T00:00:58;0.30;99.90
37408;DHT22;24866;50.248;8.252;2023-03-11T00:03:28;0.40;99.90
37408;DHT22;24866;50.248;8.252;2023-03-11T00:06:01;0.40;99.90
37408;DHT22;24866;50.248;8.252;2023-03-11T00:08:31;0.50;99.90
37408;DHT22;24866;50.248;8.252;2023-03-11T00:11:01;0.30;99.90
37408;DHT22;24866;50.248;8.252;2023-03-11T00:13:31;0.30;99.90
37408;DHT22;24866;50.248;8.252;2023-03-11T00:16:02;0.20;99.90
37408;DHT22;24866;50.248;8.252;2023-03-11T00:18:32;0.20;99.90
37408;DHT22;24866;50.248;8.252;2023-03-11T00:21:04;0.20;99.90
37408;DHT22;24866;50.248;8.252;2023-03-11T00:23:34;0.30;99.90
37408;DHT22;24866;50.248;8.252;2023-03-11T00:26:03;0.20;99.90
37408;DHT22;24866;50.248;8.252;2023-03-11T00:28:33;0.10;99.90
37408;DHT22;24866;50.248;8.252;2023-03-11T00:31:03;0.20;99.90
37408;DHT22;24866;50.248;8.252;2023-03-11T00:33:33;0.10;99.90
37408;DHT22;24866;50.248;8.252;2023-03-11T00:36:05;0.10;99.90
37408;DHT22;24866;50.248;8.252;2023-03-11T00:38:35;0.10;99.90
37408;DHT22;24866;50.248;8.252;2023-03-11T00:41:05;0.10;99.90
37408;DHT22;24866;50.248;8.252;2023-03-11T00:43:35;0.10;99.90
37408;DHT22;24866;50.248;8.252;2023-03-11T00:46:06;0.20;99.90
37408;DHT22;24866;50.248;8.252;2023-03-11T00:48:36;0.10;99.90
37408;DHT22;24866;50.248;8.252;2023-03-11T00:51:10;0.10;99.90
37408;DHT22;24866;50.248;8.252;2023-03-11T00:53:42;0.10;99.90
37408;DHT22;24866;50.248;8.252;2023-03-11T00:56:14;0.20;99.90
37408;DHT22;24866;50.248;8.252;2023-03-11T00:58:44;0.20;99.90
37408;DHT22;24866;50.248;8.252;2023-03-11T01:01:16;0.20;99.90
37408;DHT22;24866;50.248;8.252;2023-03-11T01:03:47;0.20;99.90
37408;DHT22;24866;50.248;8.252;2023-03-11T01:06:18;0.20;99.90
37408;DHT22;24866;50.248;8.252;2023-03-11T01:08:48;0.20;99.90
37408;DHT22;24866;50.248;8.252;2023-03-11T01:11:19;0.20;99.90
37408;DHT22;24866;50.248;8.252;2023-03-11T01:13:48;0.20;99.90
37408;DHT22;24866;50.248;8.252;2023-03-11T01:16:18;0.20;99.90
37408;DHT22;24866;50.248;8.252;2023-03-11T01:18:49;0.30;99.90
37408;DHT22;24866;50.248;8.252;2023-03-11T01:21:20;0.20;99.90
37408;DHT22;24866;50.248;8.252;2023-03-11T01:23:50;0.30;99.90
37408;DHT22;24866;50.248;8.252;2023-03-11T01:26:20;0.20;99.90
37408;DHT22;24866;50.248;8.252;2023-03-11T01:28:49;0.30;99.90
37408;DHT22;24866;50.248;8.252;2023-03-11T01:31:19;0.40;99.90
37408;DHT22;24866;50.248;8.252;2023-03-11T01:33:49;0.40;99.90
37408;DHT22;24866;50.248;8.252;2023-03-11T01:36:20;0.30;99.90
37408;DHT22;24866;50.248;8.252;2023-03-11T01:38:50;0.30;99.90
37408;DHT22;24866;50.248;8.252;2023-03-11T01:41:20;0.30;99.90
37408;DHT22;24866;50.248;8.252;2023-03-11T01:43:52;0.40;99.90
37408;DHT22;24866;50.248;8.252;2023-03-11T01:46:25;0.40;99.90
37408;DHT22;24866;50.248;8.252;2023-03-11T01:48:56;0.40;99.90
37408;DHT22;24866;50.248;8.252;2023-03-11T01:51:30;0.40;99.90
37408;DHT22;24866;50.248;8.252;2023-03-11T01:54:03;0.40;99.90
37408;DHT22;24866;50.248;8.252;2023-03-11T01:56:34;0.50;99.90
37408;DHT22;24866;50.248;8.252;2023-03-11T01:59:05;0.40;99.90
37408;DHT22;24866;50.248;8.252;2023-03-11T02:01:40;0.50;99.90
37408;DHT22;24866;50.248;8.252;2023-03-11T02:04:13;0.50;99.90
37408;DHT22;24866;50.248;8.252;2023-03-11T02:06:45;0.40;99.90
37408;DHT22;24866;50.248;8.252;2023-03-11T02:09:15;0.40;99.90
37408;DHT22;24866;50.248;8.252;2023-03-11T02:11:45;0.50;99.90
37408;DHT22;24866;50.248;8.252;2023-03-11T02:14:15;0.50;99.90
37408;DHT22;24866;50.248;8.252;2023-03-11T02:16:45;0.40;99.90
37408;DHT22;24866;50.248;8.252;2023-03-11T02:19:21;0.40;99.90
37408;DHT22;24866;50.248;8.252;2023-03-11T02:21:56;0.40;99.90
37408;DHT22;24866;50.248;8.252;2023-03-11T02:24:34;0.50;99.90
37408;DHT22;24866;50.248;8.252;2023-03-11T02:27:08;0.40;99.90
37408;DHT22;24866;50.248;8.252;2023-03-11T02:29:40;0.40;99.90
37408;DHT22;24866;50.248;8.252;2023-03-11T02:32:11;0.50;99.90
37408;DHT22;24866;50.248;8.252;2023-03-11T02:34:40;0.50;99.90
37408;DHT22;24866;50.248;8.252;2023-03-11T02:37:13;0.50;99.90
37408;DHT22;24866;50.248;8.252;2023-03-11T02:39:45;0.60;99.90
37408;DHT22;24866;50.248;8.252;2023-03-11T02:42:19;0.60;99.90
37408;DHT22;24866;50.248;8.252;2023-03-11T02:44:58;0.60;99.90
37408;DHT22;24866;50.248;8.252;2023-03-11T02:47:28;0.50;99.90
37408;DHT22;24866;50.248;8.252;2023-03-11T02:50:00;0.50;99.90
37408;DHT22;24866;50.248;8.252;2023-03-11T02:52:31;0.50;99.90
37408;DHT22;24866;50.248;8.252;2023-03-11T02:55:03;0.50;99.90
37408;DHT22;24866;50.248;8.252;2023-03-11T02:57:37;0.40;99.90
37408;DHT22;24866;50.248;8.252;2023-03-11T03:00:09;0.40;99.90
37408;DHT22;24866;50.248;8.252;2023-03-11T03:02:43;0.40;99.90
37408;DHT22;24866;50.248;8.252;2023-03-11T03:05:14;0.40;99.90
37408;DHT22;24866;50.248;8.252;2023-03-11T03:07:44;0.40;99.90
37408;DHT22;24866;50.248;8.252;2023-03-11T03:10:15;0.40;99.90
37408;DHT22;24866;50.248;8.252;2023-03-11T03:12:46;0.40;99.90
37408;DHT22;24866;50.248;8.252;2023-03-11T03:15:17;0.40;99.90
37408;DHT22;24866;50.248;8.252;2023-03-11T03:17:47;0.40;99.90
37408;DHT22;24866;50.248;8.252;2023-03-11T03:20:20;0.40;99.90
37408;DHT22;24866;50.248;8.252;2023-03-11T03:22:50;0.40;99.90
37408;DHT22;24866;50.248;8.252;2023-03-11T03:25:20;0.30;99.90
37408;DHT22;24866;50.248;8.252;2023-03-11T03:27:52;0.50;99.90
37408;DHT22;24866;50.248;8.252;2023-03-11T03:30:24;0.40;99.90
37408;DHT22;24866;50.248;8.252;2023-03-11T03:32:56;0.40;99.90
37408;DHT22;24866;50.248;8.252;2023-03-11T03:35:27;0.40;99.90
37408;DHT22;24866;50.248;8.252;2023-03-11T03:37:57;0.40;99.90
37408;DHT22;24866;50.248;8.252;2023-03-11T03:40:27;0.40;99.90
37408;DHT22;24866;50.248;8.252;2023-03-11T03:42:59;0.40;99.90
37408;DHT22;24866;50.248;8.252;2023-03-11T03:45:29;0.40;99.90
37408;DHT22;24866;50.248;8.252;2023-03-11T03:47:59;0.50;99.90
37408;DHT22;24866;50.248;8.252;2023-03-11T03:50:30;0.40;99.90
37408;DHT22;24866;50.248;8.252;2023-03-11T03:53:00;0.40;99.90
37408;DHT22;24866;50.248;8.252;2023-03-11T03:55:30;0.50;99.90
37408;DHT22;24866;50.248;8.252;2023-03-11T03:58:01;0.40;99.90
37408;DHT22;24866;50.248;8.252;2023-03-11T04:00:34;0.40;99.90
37408;DHT22;24866;50.248;8.252;2023-03-11T04:03:05;0.40;99.90
37408;DHT22;24866;50.248;8.252;2023-03-11T04:05:34;0.40;99.90
37408;DHT22;24866;50.248;8.252;2023-03-11T04:08:04;0.40;99.90
37408;DHT22;24866;50.248;8.252;2023-03-11T04:10:34;0.40;99.90
37408;DHT22;24866;50.248;8.252;2023-03-11T04:13:06;0.50;99.90
37408;DHT22;24866;50.248;8.252;2023-03-11T04:15:37;0.50;99.90
37408;DHT22;24866;50.248;8.252;2023-03-11T04:18:07;0.50;99.90
37408;DHT22;24866;50.248;8.252;2023-03-11T04:20:37;0.50;99.90
37408;DHT22;24866;50.248;8.252;2023-03-11T04:23:07;0.50;99.90
37408;DHT22;24866;50.248;8.252;2023-03-11T04:25:38;0.50;99.90
37408;DHT22;24866;50.248;8.252;2023-03-11T04:28:09;0.50;99.90
37408;DHT22;24866;50.248;8.252;2023-03-11T04:30:39;0.40;99.90
37408;DHT22;24866;50.248;8.252;2023-03-11T04:33:09;0.50;99.90
37408;DHT22;24866;50.248;8.252;2023-03-11T04:35:39;0.50;99.90
37408;DHT22;24866;50.248;8.252;2023-03-11T04:38:10;0.40;99.90
37408;DHT22;24866;50.248;8.252;2023-03-11T04:40:40;0.40;99.90
37408;DHT22;24866;50.248;8.252;2023-03-11T04:43:12;0.30;99.90
37408;DHT22;24866;50.248;8.252;2023-03-11T04:45:42;0.30;99.90
37408;DHT22;24866;50.248;8.252;2023-03-11T04:48:13;0.40;99.90
37408;DHT22;24866;50.248;8.252;2023-03-11T04:50:43;0.30;99.90
37408;DHT22;24866;50.248;8.252;2023-03-11T04:53:13;0.30;99.90
37408;DHT22;24866;50.248;8.252;2023-03-11T04:55:43;0.20;99.90
37408;DHT22;24866;50.248;8.252;2023-03-11T04:58:16;0.30;99.90
37408;DHT22;24866;50.248;8.252;2023-03-11T05:00:46;0.40;99.90
37408;DHT22;24866;50.248;8.252;2023-03-11T05:03:16;0.40;99.90
37408;DHT22;24866;50.248;8.252;2023-03-11T05:05:46;0.40;99.90
37408;DHT22;24866;50.248;8.252;2023-03-11T05:08:16;0.50;99.90
37408;DHT22;24866;50.248;8.252;2023-03-11T05:10:46;0.40;99.90
37408;DHT22;24866;50.248;8.252;2023-03-11T05:13:19;0.40;99.90
37408;DHT22;24866;50.248;8.252;2023-03-11T05:15:49;0.50;99.90
37408;DHT22;24866;50.248;8.252;2023-03-11T05:18:19;0.50;99.90
37408;DHT22;24866;50.248;8.252;2023-03-11T05:20:49;0.50;99.90
37408;DHT22;24866;50.248;8.252;2023-03-11T05:23:20;0.50;99.90
37408;DHT22;24866;50.248;8.252;2023-03-11T05:25:50;0.30;99.90
37408;DHT22;24866;50.248;8.252;2023-03-11T05:28:23;0.40;99.90
37408;DHT22;24866;50.248;8.252;2023-03-11T05:30:53;0.30;99.90
37408;DHT22;24866;50.248;8.252;2023-03-11T05:33:23;0.30;99.90
37408;DHT22;24866;50.248;8.252;2023-03-11T05:35:53;0.30;99.90
37408;DHT22;24866;50.248;8.252;2023-03-11T05:38:24;0.30;99.90
37408;DHT22;24866;50.248;8.252;2023-03-11T05:40:55;0.30;99.90
37408;DHT22;24866;50.248;8.252;2023-03-11T05:43:26;0.30;99.90
37408;DHT22;24866;50.248;8.252;2023-03-11T05:45:56;0.20;99.90
37408;DHT22;24866;50.248;8.252;2023-03-11T05:48:26;0.30;99.90
37408;DHT22;24866;50.248;8.252;2023-03-11T05:50:56;0.30;99.90
37408;DHT22;24866;50.248;8.252;2023-03-11T05:53:26;0.30;99.90
37408;DHT22;24866;50.248;8.252;2023-03-11T05:55:57;0.20;99.90
37408;DHT22;24866;50.248;8.252;2023-03-11T05:58:30;0.30;99.90
37408;DHT22;24866;50.248;8.252;2023-03-11T06:01:07;0.20;99.90
37408;DHT22;24866;50.248;8.252;2023-03-11T06:03:37;0.20;99.90
37408;DHT22;24866;50.248;8.252;2023-03-11T06:06:10;0.20;99.90
37408;DHT22;24866;50.248;8.252;2023-03-11T06:08:42;0.10;99.90
37408;DHT22;24866;50.248;8.252;2023-03-11T06:11:18;0.10;99.90
37408;DHT22;24866;50.248;8.252;2023-03-11T06:13:51;0.20;99.90
37408;DHT22;24866;50.248;8.252;2023-03-11T06:16:23;0.10;99.90
37408;DHT22;24866;50.248;8.252;2023-03-11T06:18:53;0.00;99.90
37408;DHT22;24866;50.248;8.252;2023-03-11T06:21:23;0.00;99.90
37408;DHT22;24866;50.248;8.252;2023-03-11T06:23:54;0.00;99.90
37408;DHT22;24866;50.248;8.252;2023-03-11T06:26:25;0.00;99.90
37408;DHT22;24866;50.248;8.252;2023-03-11T06:28:56;0.00;99.90
37408;DHT22;24866;50.248;8.252;2023-03-11T06:31:27;-0.10;99.90
37408;DHT22;24866;50.248;8.252;2023-03-11T06:33:57;-0.10;99.90
37408;DHT22;24866;50.248;8.252;2023-03-11T06:36:27;-0.10;99.90
37408;DHT22;24866;50.248;8.252;2023-03-11T06:38:57;-0.10;99.90
37408;DHT22;24866;50.248;8.252;2023-03-11T06:41:27;0.00;99.90
37408;DHT22;24866;50.248;8.252;2023-03-11T06:43:59;-0.10;99.90
37408;DHT22;24866;50.248;8.252;2023-03-11T06:46:29;0.00;99.90
37408;DHT22;24866;50.248;8.252;2023-03-11T06:48:59;0.10;99.90
37408;DHT22;24866;50.248;8.252;2023-03-11T06:51:29;0.10;99.90
37408;DHT22;24866;50.248;8.252;2023-03-11T06:53:59;0.30;99.90
37408;DHT22;24866;50.248;8.252;2023-03-11T06:56:29;0.20;99.90
37408;DHT22;24866;50.248;8.252;2023-03-11T06:59:01;0.20;99.90
37408;DHT22;24866;50.248;8.252;2023-03-11T07:01:31;0.40;99.90
37408;DHT22;24866;50.248;8.252;2023-03-11T07:04:01;0.40;99.90
37408;DHT22;24866;50.248;8.252;2023-03-11T07:06:31;0.40;99.90
37408;DHT22;24866;50.248;8.252;2023-03-11T07:09:01;0.40;99.90
37408;DHT22;24866;50.248;8.252;2023-03-11T07:11:31;0.40;99.90
37408;DHT22;24866;50.248;8.252;2023-03-11T07:14:03;0.50;99.90
37408;DHT22;24866;50.248;8.252;2023-03-11T07:16:33;0.50;99.90
37408;DHT22;24866;50.248;8.252;2023-03-11T07:19:03;0.50;99.90
37408;DHT22;24866;50.248;8.252;2023-03-11T07:21:33;0.60;99.90
37408;DHT22;24866;50.248;8.252;2023-03-11T07:24:04;0.60;99.90
37408;DHT22;24866;50.248;8.252;2023-03-11T07:26:35;0.40;99.90
37408;DHT22;24866;50.248;8.252;2023-03-11T07:29:07;0.40;99.90
37408;DHT22;24866;50.248;8.252;2023-03-11T07:31:37;0.50;99.90
37408;DHT22;24866;50.248;8.252;2023-03-11T07:34:11;0.70;99.90
37408;DHT22;24866;50.248;8.252;2023-03-11T07:36:42;0.90;99.90
37408;DHT22;24866;50.248;8.252;2023-03-11T07:39:14;0.90;99.90
37408;DHT22;24866;50.248;8.252;2023-03-11T07:41:46;0.80;99.90
37408;DHT22;24866;50.248;8.252;2023-03-11T07:44:18;0.70;99.90
37408;DHT22;24866;50.248;8.252;2023-03-11T07:46:48;0.60;99.90
37408;DHT22;24866;50.248;8.252;2023-03-11T07:49:19;0.90;99.90
37408;DHT22;24866;50.248;8.252;2023-03-11T07:51:49;1.00;99.90
37408;DHT22;24866;50.248;8.252;2023-03-11T07:54:19;0.90;99.90
37408;DHT22;24866;50.248;8.252;2023-03-11T07:56:49;1.20;99.90
37408;DHT22;24866;50.248;8.252;2023-03-11T07:59:21;1.30;99.90
37408;DHT22;24866;50.248;8.252;2023-03-11T08:01:51;1.10;99.90
37408;DHT22;24866;50.248;8.252;2023-03-11T08:04:21;0.90;99.90
37408;DHT22;24866;50.248;8.252;2023-03-11T08:06:52;1.00;99.90
37408;DHT22;24866;50.248;8.252;2023-03-11T08:09:22;1.00;99.90
37408;DHT22;24866;50.248;8.252;2023-03-11T08:11:52;1.40;99.90
37408;DHT22;24866;50.248;8.252;2023-03-11T08:14:23;1.30;99.90
37408;DHT22;24866;50.248;8.252;2023-03-11T08:16:53;1.20;99.90
37408;DHT22;24866;50.248;8.252;2023-03-11T08:19:23;1.10;99.90
37408;DHT22;24866;50.248;8.252;2023-03-11T08:21:53;1.20;99.90
37408;DHT22;24866;50.248;8.252;2023-03-11T08:24:23;1.30;99.90
37408;DHT22;24866;50.248;8.252;2023-03-11T08:26:53;1.20;99.90
37408;DHT22;24866;50.248;8.252;2023-03-11T08:29:26;1.20;99.90
37408;DHT22;24866;50.248;8.252;2023-03-11T08:31:56;1.30;99.90
37408;DHT22;24866;50.248;8.252;2023-03-11T08:34:26;1.40;99.90
37408;DHT22;24866;50.248;8.252;2023-03-11T08:36:56;1.40;99.90
37408;DHT22;24866;50.248;8.252;2023-03-11T08:39:26;1.50;99.90
37408;DHT22;24866;50.248;8.252;2023-03-11T08:41:56;1.60;99.90
37408;DHT22;24866;50.248;8.252;2023-03-11T08:44:28;1.90;99.90
37408;DHT22;24866;50.248;8.252;2023-03-11T08:46:59;1.90;99.90
37408;DHT22;24866;50.248;8.252;2023-03-11T08:49:29;2.30;99.90
37408;DHT22;24866;50.248;8.252;2023-03-11T08:52:00;2.20;99.90
37408;DHT22;24866;50.248;8.252;2023-03-11T08:54:31;2.60;99.90
37408;DHT22;24866;50.248;8.252;2023-03-11T08:57:02;2.50;99.90
37408;DHT22;24866;50.248;8.252;2023-03-11T08:59:33;2.50;99.90
37408;DHT22;24866;50.248;8.252;2023-03-11T09:02:04;2.40;99.90
37408;DHT22;24866;50.248;8.252;2023-03-11T09:04:33;2.40;99.90
37408;DHT22;24866;50.248;8.252;2023-03-11T09:07:03;2.60;99.90
37408;DHT22;24866;50.248;8.252;2023-03-11T09:09:33;2.20;99.90
37408;DHT22;24866;50.248;8.252;2023-03-11T09:12:04;2.10;99.90
37408;DHT22;24866;50.248;8.252;2023-03-11T09:14:36;2.20;99.90
37408;DHT22;24866;50.248;8.252;2023-03-11T09:17:07;2.30;99.90
37408;DHT22;24866;50.248;8.252;2023-03-11T09:19:37;2.50;99.90
37408;DHT22;24866;50.248;8.252;2023-03-11T09:22:07;2.40;99.90
37408;DHT22;24866;50.248;8.252;2023-03-11T09:24:37;2.10;99.90
37408;DHT22;24866;50.248;8.252;2023-03-11T09:27:07;2.40;99.90
37408;DHT22;24866;50.248;8.252;2023-03-11T09:29:39;2.20;99.90
37408;DHT22;24866;50.248;8.252;2023-03-11T09:32:11;2.60;99.90
37408;DHT22;24866;50.248;8.252;2023-03-11T09:34:41;3.00;99.90
37408;DHT22;24866;50.248;8.252;2023-03-11T09:37:12;2.80;99.90
37408;DHT22;24866;50.248;8.252;2023-03-11T09:39:42;2.40;99.90
37408;DHT22;24866;50.248;8.252;2023-03-11T09:42:18;2.20;99.90
37408;DHT22;24866;50.248;8.252;2023-03-11T09:44:55;2.20;99.90
37408;DHT22;24866;50.248;8.252;2023-03-11T09:47:51;2.20;99.90
37408;DHT22;24866;50.248;8.252;2023-03-11T09:50:29;2.40;99.90
37408;DHT22;24866;50.248;8.252;2023-03-11T09:53:11;2.70;99.90
37408;DHT22;24866;50.248;8.252;2023-03-11T09:55:52;3.60;99.90
37408;DHT22;24866;50.248;8.252;2023-03-11T09:58:33;3.90;99.90
37408;DHT22;24866;50.248;8.252;2023-03-11T10:01:13;3.30;99.90
37408;DHT22;24866;50.248;8.252;2023-03-11T10:03:44;2.20;99.90
37408;DHT22;24866;50.248;8.252;2023-03-11T10:06:16;2.30;99.90
37408;DHT22;24866;50.248;8.252;2023-03-11T10:08:54;2.40;99.90
37408;DHT22;24866;50.248;8.252;2023-03-11T10:11:41;2.40;99.90
37408;DHT22;24866;50.248;8.252;2023-03-11T10:14:42;2.30;99.90
37408;DHT22;24866;50.248;8.252;2023-03-11T10:17:22;2.50;99.90
37408;DHT22;24866;50.248;8.252;2023-03-11T10:20:03;2.50;99.90
37408;DHT22;24866;50.248;8.252;2023-03-11T10:22:40;2.50;99.90
37408;DHT22;24866;50.248;8.252;2023-03-11T10:25:14;2.50;99.90
37408;DHT22;24866;50.248;8.252;2023-03-11T10:27:48;2.20;99.90
37408;DHT22;24866;50.248;8.252;2023-03-11T10:30:24;2.20;99.90
37408;DHT22;24866;50.248;8.252;2023-03-11T10:32:58;2.20;99.90
37408;DHT22;24866;50.248;8.252;2023-03-11T10:35:35;2.20;99.90
37408;DHT22;24866;50.248;8.252;2023-03-11T10:38:13;2.20;99.90
37408;DHT22;24866;50.248;8.252;2023-03-11T10:40:46;2.10;99.90
37408;DHT22;24866;50.248;8.252;2023-03-11T10:43:18;2.20;99.90
37408;DHT22;24866;50.248;8.252;2023-03-11T10:45:49;2.30;99.90
37408;DHT22;24866;50.248;8.252;2023-03-11T10:48:21;2.70;99.90
37408;DHT22;24866;50.248;8.252;2023-03-11T10:50:56;3.10;99.90
37408;DHT22;24866;50.248;8.252;2023-03-11T10:53:31;3.70;99.90
37408;DHT22;24866;50.248;8.252;2023-03-11T10:56:01;3.50;99.90
37408;DHT22;24866;50.248;8.252;2023-03-11T10:58:30;3.00;99.90
37408;DHT22;24866;50.248;8.252;2023-03-11T11:01:03;2.70;99.90
37408;DHT22;24866;50.248;8.252;2023-03-11T11:03:35;2.70;99.90
37408;DHT22;24866;50.248;8.252;2023-03-11T11:06:18;2.70;99.90
37408;DHT22;24866;50.248;8.252;2023-03-11T11:09:09;3.10;99.90
37408;DHT22;24866;50.248;8.252;2023-03-11T11:11:43;2.90;99.90
37408;DHT22;24866;50.248;8.252;2023-03-11T11:14:45;3.00;99.90
37408;DHT22;24866;50.248;8.252;2023-03-11T11:17:18;2.90;99.90
37408;DHT22;24866;50.248;8.252;2023-03-11T11:19:51;3.10;99.90
37408;DHT22;24866;50.248;8.252;2023-03-11T11:22:22;3.10;99.90
37408;DHT22;24866;50.248;8.252;2023-03-11T11:24:53;3.00;99.90
37408;DHT22;24866;50.248;8.252;2023-03-11T11:27:25;2.90;99.90
37408;DHT22;24866;50.248;8.252;2023-03-11T11:30:13;2.70;99.90
37408;DHT22;24866;50.248;8.252;2023-03-11T11:32:44;2.80;99.90
37408;DHT22;24866;50.248;8.252;2023-03-11T11:35:16;2.90;99.90
37408;DHT22;24866;50.248;8.252;2023-03-11T11:37:50;3.10;99.90
37408;DHT22;24866;50.248;8.252;2023-03-11T11:40:27;3.10;99.90
37408;DHT22;24866;50.248;8.252;2023-03-11T11:43:00;3.10;99.90
37408;DHT22;24866;50.248;8.252;2023-03-11T11:45:35;3.00;99.90
37408;DHT22;24866;50.248;8.252;2023-03-11T11:48:13;3.10;99.90
37408;DHT22;24866;50.248;8.252;2023-03-11T11:50:50;3.30;99.90
37408;DHT22;24866;50.248;8.252;2023-03-11T11:53:27;3.10;99.90
37408;DHT22;24866;50.248;8.252;2023-03-11T11:55:58;3.20;99.90
37408;DHT22;24866;50.248;8.252;2023-03-11T11:58:29;3.60;99.90
37408;DHT22;24866;50.248;8.252;2023-03-11T12:01:07;3.20;99.90
37408;DHT22;24866;50.248;8.252;2023-03-11T12:04:19;3.20;99.90
37408;DHT22;24866;50.248;8.252;2023-03-11T12:07:03;3.50;99.90
37408;DHT22;24866;50.248;8.252;2023-03-11T12:09:41;3.20;73.60
37408;DHT22;24866;50.248;8.252;2023-03-11T12:12:20;3.10;1.00
37408;DHT22;24866;50.248;8.252;2023-03-11T12:14:59;3.00;99.90
37408;DHT22;24866;50.248;8.252;2023-03-11T12:17:33;3.30;1.00
37408;DHT22;24866;50.248;8.252;2023-03-11T12:20:07;3.40;1.00
37408;DHT22;24866;50.248;8.252;2023-03-11T12:22:54;3.00;1.00
37408;DHT22;24866;50.248;8.252;2023-03-11T12:25:30;3.00;1.00
37408;DHT22;24866;50.248;8.252;2023-03-11T12:28:13;3.20;1.00
37408;DHT22;24866;50.248;8.252;2023-03-11T12:30:46;3.40;99.90
37408;DHT22;24866;50.248;8.252;2023-03-11T12:33:24;3.30;1.00
37408;DHT22;24866;50.248;8.252;2023-03-11T12:35:57;3.30;1.00
37408;DHT22;24866;50.248;8.252;2023-03-11T12:38:31;3.70;99.90
37408;DHT22;24866;50.248;8.252;2023-03-11T12:41:04;4.60;99.90
37408;DHT22;24866;50.248;8.252;2023-03-11T12:44:21;4.40;35.20
37408;DHT22;24866;50.248;8.252;2023-03-11T12:47:17;4.60;81.40
37408;DHT22;24866;50.248;8.252;2023-03-11T12:49:48;4.40;99.90
37408;DHT22;24866;50.248;8.252;2023-03-11T12:52:27;4.60;1.00
37408;DHT22;24866;50.248;8.252;2023-03-11T12:58:31;4.50;1.00
37408;DHT22;24866;50.248;8.252;2023-03-11T13:01:23;4.10;99.90
37408;DHT22;24866;50.248;8.252;2023-03-11T13:04:03;3.90;1.00
37408;DHT22;24866;50.248;8.252;2023-03-11T13:09:29;4.20;1.00
37408;DHT22;24866;50.248;8.252;2023-03-11T13:11:59;4.20;1.00
37408;DHT22;24866;50.248;8.252;2023-03-11T13:14:31;4.30;1.00
37408;DHT22;24866;50.248;8.252;2023-03-11T13:17:24;4.00;99.90
37408;DHT22;24866;50.248;8.252;2023-03-11T13:19:55;3.90;99.90
37408;DHT22;24866;50.248;8.252;2023-03-11T13:25:55;3.70;1.00
37408;DHT22;24866;50.248;8.252;2023-03-11T13:31:39;3.80;1.00
37408;DHT22;24866;50.248;8.252;2023-03-11T13:34:14;3.60;1.00
37408;DHT22;24866;50.248;8.252;2023-03-11T13:36:57;3.70;1.00
37408;DHT22;24866;50.248;8.252;2023-03-11T13:39:41;3.90;1.00
37408;DHT22;24866;50.248;8.252;2023-03-11T13:42:21;3.80;1.00
37408;DHT22;24866;50.248;8.252;2023-03-11T13:44:52;3.70;1.00
37408;DHT22;24866;50.248;8.252;2023-03-11T13:47:24;3.80;1.00
37408;DHT22;24866;50.248;8.252;2023-03-11T13:50:01;3.60;99.90
37408;DHT22;24866;50.248;8.252;2023-03-11T13:52:32;3.50;99.90
37408;DHT22;24866;50.248;8.252;2023-03-11T13:55:06;3.50;99.90
37408;DHT22;24866;50.248;8.252;2023-03-11T13:57:37;3.70;99.90
37408;DHT22;24866;50.248;8.252;2023-03-11T14:00:14;4.00;99.90
37408;DHT22;24866;50.248;8.252;2023-03-11T14:02:49;4.00;99.90
37408;DHT22;24866;50.248;8.252;2023-03-11T14:05:23;3.80;99.90
37408;DHT22;24866;50.248;8.252;2023-03-11T14:07:54;3.70;42.70
37408;DHT22;24866;50.248;8.252;2023-03-11T14:10:26;3.80;26.40
37408;DHT22;24866;50.248;8.252;2023-03-11T14:13:21;3.70;1.00
37408;DHT22;24866;50.248;8.252;2023-03-11T14:15:58;3.90;86.00
37408;DHT22;24866;50.248;8.252;2023-03-11T14:18:33;4.00;50.20
37408;DHT22;24866;50.248;8.252;2023-03-11T14:21:05;4.10;98.30
37408;DHT22;24866;50.248;8.252;2023-03-11T14:23:39;4.10;8.50
37408;DHT22;24866;50.248;8.252;2023-03-11T14:26:13;4.00;1.00
37408;DHT22;24866;50.248;8.252;2023-03-11T14:28:45;4.00;1.00
37408;DHT22;24866;50.248;8.252;2023-03-11T14:31:25;4.10;1.00
37408;DHT22;24866;50.248;8.252;2023-03-11T14:34:00;4.10;1.00
37408;DHT22;24866;50.248;8.252;2023-03-11T14:36:41;4.20;1.00
37408;DHT22;24866;50.248;8.252;2023-03-11T14:39:37;4.10;1.00
37408;DHT22;24866;50.248;8.252;2023-03-11T14:42:12;3.90;1.00
37408;DHT22;24866;50.248;8.252;2023-03-11T14:44:48;3.80;1.00
37408;DHT22;24866;50.248;8.252;2023-03-11T14:47:23;4.10;1.00
37408;DHT22;24866;50.248;8.252;2023-03-11T14:49:59;4.20;1.00
37408;DHT22;24866;50.248;8.252;2023-03-11T14:52:35;4.10;1.00
37408;DHT22;24866;50.248;8.252;2023-03-11T14:55:12;4.10;1.00
37408;DHT22;24866;50.248;8.252;2023-03-11T14:57:46;3.90;99.90
37408;DHT22;24866;50.248;8.252;2023-03-11T15:00:21;4.00;99.90
37408;DHT22;24866;50.248;8.252;2023-03-11T15:03:00;4.00;99.90
37408;DHT22;24866;50.248;8.252;2023-03-11T15:05:36;4.00;99.90
37408;DHT22;24866;50.248;8.252;2023-03-11T15:08:09;3.90;99.90
37408;DHT22;24866;50.248;8.252;2023-03-11T15:10:39;4.20;99.90
37408;DHT22;24866;50.248;8.252;2023-03-11T15:13:14;4.20;99.90
37408;DHT22;24866;50.248;8.252;2023-03-11T15:15:54;4.00;99.90
37408;DHT22;24866;50.248;8.252;2023-03-11T15:18:29;4.20;99.90
37408;DHT22;24866;50.248;8.252;2023-03-11T15:21:05;4.10;99.90
37408;DHT22;24866;50.248;8.252;2023-03-11T15:23:37;4.20;99.90
37408;DHT22;24866;50.248;8.252;2023-03-11T15:26:17;4.20;99.90
37408;DHT22;24866;50.248;8.252;2023-03-11T15:28:53;3.90;83.60
37408;DHT22;24866;50.248;8.252;2023-03-11T15:31:29;3.90;85.30
37408;DHT22;24866;50.248;8.252;2023-03-11T15:34:29;4.20;99.90
37408;DHT22;24866;50.248;8.252;2023-03-11T15:37:04;4.00;1.00
37408;DHT22;24866;50.248;8.252;2023-03-11T15:39:45;3.90;1.00
37408;DHT22;24866;50.248;8.252;2023-03-11T15:42:23;4.20;21.90
37408;DHT22;24866;50.248;8.252;2023-03-11T15:45:12;4.10;1.00
37408;DHT22;24866;50.248;8.252;2023-03-11T15:47:44;4.20;1.00
37408;DHT22;24866;50.248;8.252;2023-03-11T15:50:18;4.60;66.70
37408;DHT22;24866;50.248;8.252;2023-03-11T15:52:50;4.90;99.90
37408;DHT22;24866;50.248;8.252;2023-03-11T15:55:21;5.30;99.90
37408;DHT22;24866;50.248;8.252;2023-03-11T15:57:57;5.10;99.90
37408;DHT22;24866;50.248;8.252;2023-03-11T16:00:29;5.20;99.90
37408;DHT22;24866;50.248;8.252;2023-03-11T16:02:59;5.50;99.90
37408;DHT22;24866;50.248;8.252;2023-03-11T16:05:30;5.60;99.90
37408;DHT22;24866;50.248;8.252;2023-03-11T16:08:01;5.90;99.90
37408;DHT22;24866;50.248;8.252;2023-03-11T16:10:33;5.80;99.90
37408;DHT22;24866;50.248;8.252;2023-03-11T16:13:03;5.40;39.90
37408;DHT22;24866;50.248;8.252;2023-03-11T16:15:35;5.60;83.40
37408;DHT22;24866;50.248;8.252;2023-03-11T16:18:06;5.40;1.00
37408;DHT22;24866;50.248;8.252;2023-03-11T16:20:39;4.90;1.00
37408;DHT22;24866;50.248;8.252;2023-03-11T16:23:15;5.10;1.00
37408;DHT22;24866;50.248;8.252;2023-03-11T16:25:46;5.00;1.00
37408;DHT22;24866;50.248;8.252;2023-03-11T16:28:17;5.20;1.00
37408;DHT22;24866;50.248;8.252;2023-03-11T16:30:48;5.20;1.00
37408;DHT22;24866;50.248;8.252;2023-03-11T16:33:19;5.00;1.00
37408;DHT22;24866;50.248;8.252;2023-03-11T16:35:49;4.60;1.00
37408;DHT22;24866;50.248;8.252;2023-03-11T16:38:20;4.50;1.00